createdAt,value
2023-04-02T00:02:27.586Z,1.90
2023-04-02T00:05:31.648Z,1.90
2023-04-02T00:07:59.741Z,2.00
2023-04-02T00:10:35.755Z,2.00
2023-04-02T00:13:12.166Z,2.10
2023-04-02T00:15:42.423Z,2.10
2023-04-02T00:18:22.257Z,2.10
2023-04-02T00:20:53.937Z,2.10
2023-04-02T00:23:20.886Z,2.20
2023-04-02T00:25:47.837Z,2.10
2023-04-02T00:28:18.423Z,2.20
2023-04-02T00:30:55.462Z,2.20
2023-04-02T00:33:25.837Z,2.20
2023-04-02T00:35:54.637Z,2.40
2023-04-02T00:38:24.545Z,2.60
2023-04-02T00:40:53.161Z,2.70
2023-04-02T00:43:21.158Z,2.70
2023-04-02T00:45:54.743Z,2.80
2023-04-02T00:48:33.417Z,2.80
2023-04-02T00:51:28.699Z,2.90
2023-04-02T00:54:00.728Z,2.80
2023-04-02T00:56:40.951Z,2.80
2023-04-02T00:59:26.629Z,2.80
2023-04-02T01:02:22.561Z,2.80
2023-04-02T01:05:23.969Z,2.80
2023-04-02T01:08:34.275Z,2.80
2023-04-02T01:11:29.757Z,2.90
2023-04-02T01:14:48.868Z,2.90
2023-04-02T01:17:36.686Z,2.90
2023-04-02T01:20:38.568Z,2.90
2023-04-02T01:23:30.599Z,2.90
2023-04-02T01:26:09.488Z,3.00
2023-04-02T01:29:01.671Z,3.00
2023-04-02T01:31:30.572Z,3.00
2023-04-02T01:33:57.663Z,3.00
2023-04-02T01:36:32.105Z,3.00
2023-04-02T01:39:12.742Z,3.00
2023-04-02T01:41:53.434Z,3.00
2023-04-02T01:44:43.633Z,3.00
2023-04-02T01:47:17.338Z,3.00
2023-04-02T01:49:45.939Z,3.00
2023-04-02T01:52:18.344Z,3.00
2023-04-02T01:54:47.879Z,2.90
2023-04-02T01:57:16.037Z,3.00
2023-04-02T01:59:43.856Z,2.90
2023-04-02T02:02:15.172Z,2.90
2023-04-02T02:04:42.322Z,2.90
2023-04-02T02:07:17.805Z,3.00
2023-04-02T02:09:45.104Z,2.90
2023-04-02T02:12:14.541Z,3.00
2023-04-02T02:14:48.240Z,3.00
2023-04-02T02:17:18.637Z,3.00
2023-04-02T02:19:54.082Z,3.00
2023-04-02T02:22:29.923Z,3.10
2023-04-02T02:25:00.344Z,3.10
2023-04-02T02:27:27.259Z,3.10
2023-04-02T02:30:16.671Z,3.10
2023-04-02T02:32:57.285Z,3.10
2023-04-02T02:35:46.350Z,3.10
2023-04-02T02:38:31.441Z,3.10
2023-04-02T02:41:04.638Z,3.10
2023-04-02T02:43:33.066Z,3.10
2023-04-02T02:46:02.739Z,3.10
2023-04-02T02:48:37.303Z,3.10
2023-04-02T02:51:06.607Z,3.10
2023-04-02T02:53:33.606Z,3.10
2023-04-02T02:56:02.217Z,3.10
2023-04-02T02:58:33.109Z,3.10
2023-04-02T03:01:00.609Z,3.10
2023-04-02T03:03:32.668Z,3.10
2023-04-02T03:06:06.703Z,3.10
2023-04-02T03:09:23.962Z,3.10
2023-04-02T03:12:13.828Z,3.20
2023-04-02T03:14:48.755Z,3.10
2023-04-02T03:17:26.513Z,3.10
2023-04-02T03:20:16.180Z,3.10
2023-04-02T03:23:12.606Z,3.10
2023-04-02T03:25:46.028Z,3.10
2023-04-02T03:28:27.587Z,3.10
2023-04-02T03:31:06.515Z,3.00
2023-04-02T03:33:48.065Z,3.00
2023-04-02T03:36:43.832Z,3.00
2023-04-02T03:39:15.405Z,3.00
2023-04-02T03:41:48.224Z,3.10
2023-04-02T03:44:44.222Z,3.10
2023-04-02T03:47:27.257Z,3.10
2023-04-02T03:50:12.061Z,3.10
2023-04-02T03:52:39.425Z,3.00
2023-04-02T03:55:35.662Z,3.00
2023-04-02T03:58:03.459Z,3.00
2023-04-02T04:00:39.644Z,3.00
2023-04-02T04:03:13.910Z,3.00
2023-04-02T04:06:07.257Z,3.00
2023-04-02T04:08:47.036Z,3.00
2023-04-02T04:11:17.849Z,3.00
2023-04-02T04:13:47.616Z,3.00
2023-04-02T04:16:20.787Z,3.10
2023-04-02T04:18:53.071Z,3.00
2023-04-02T04:21:38.969Z,3.00
2023-04-02T04:24:22.488Z,3.00
2023-04-02T04:27:10.174Z,3.00
2023-04-02T04:30:04.141Z,3.00
2023-04-02T04:32:39.198Z,3.00
2023-04-02T04:35:35.958Z,3.00
2023-04-02T04:38:22.033Z,3.00
2023-04-02T04:40:54.295Z,3.00
2023-04-02T04:43:49.078Z,3.00
2023-04-02T04:46:35.046Z,3.00
2023-04-02T04:49:05.591Z,3.00
2023-04-02T04:51:48.237Z,3.00
2023-04-02T04:54:16.395Z,3.10
2023-04-02T04:56:55.483Z,3.10
2023-04-02T04:59:36.674Z,3.10
2023-04-02T05:02:23.094Z,3.20
2023-04-02T05:04:52.654Z,3.10
2023-04-02T05:07:43.329Z,3.00
2023-04-02T05:10:28.891Z,3.00
2023-04-02T05:13:04.004Z,3.00
2023-04-02T05:15:54.911Z,3.00
2023-04-02T05:18:31.326Z,3.00
2023-04-02T05:21:08.135Z,3.00
2023-04-02T05:23:48.479Z,3.00
2023-04-02T05:26:40.704Z,3.10
2023-04-02T05:29:30.347Z,3.10
2023-04-02T05:32:18.510Z,3.10
2023-04-02T05:34:50.427Z,3.00
2023-04-02T05:37:21.574Z,3.00
2023-04-02T05:39:55.648Z,3.00
2023-04-02T05:42:29.447Z,3.10
2023-04-02T05:45:27.950Z,3.10
2023-04-02T05:48:01.814Z,3.10
2023-04-02T05:50:40.381Z,3.10
2023-04-02T05:53:14.996Z,3.10
2023-04-02T05:55:53.657Z,3.10
2023-04-02T05:58:37.401Z,3.10
2023-04-02T06:01:17.670Z,3.10
2023-04-02T06:04:08.497Z,3.10
2023-04-02T06:06:41.897Z,3.10
2023-04-02T06:09:25.078Z,3.10
2023-04-02T06:12:04.689Z,3.10
2023-04-02T06:14:31.672Z,3.20
2023-04-02T06:16:58.761Z,3.10
2023-04-02T06:19:37.368Z,3.10
2023-04-02T06:22:23.027Z,3.10
2023-04-02T06:24:57.897Z,3.20
2023-04-02T06:27:26.569Z,3.30
2023-04-02T06:29:59.734Z,3.30
2023-04-02T06:32:27.346Z,3.20
2023-04-02T06:34:54.898Z,3.30
2023-04-02T06:37:28.124Z,3.20
2023-04-02T06:39:56.943Z,3.30
2023-04-02T06:42:31.553Z,3.30
2023-04-02T06:44:58.862Z,3.30
2023-04-02T06:47:42.628Z,3.30
2023-04-02T06:50:33.532Z,3.30
2023-04-02T06:53:10.138Z,3.40
2023-04-02T06:56:32.122Z,3.40
2023-04-02T06:58:59.576Z,3.40
2023-04-02T07:01:30.992Z,3.40
2023-04-02T07:03:58.592Z,3.50
2023-04-02T07:06:25.528Z,3.70
2023-04-02T07:08:52.738Z,3.80
2023-04-02T07:11:22.052Z,3.90
2023-04-02T07:13:50.629Z,3.90
2023-04-02T07:16:20.943Z,3.80
2023-04-02T07:18:48.805Z,3.80
2023-04-02T07:21:15.766Z,3.80
2023-04-02T07:23:42.868Z,3.80
2023-04-02T07:26:14.627Z,3.70
2023-04-02T07:28:42.095Z,3.70
2023-04-02T07:31:24.483Z,3.80
2023-04-02T07:33:52.939Z,3.70
2023-04-02T07:36:24.289Z,3.80
2023-04-02T07:42:32.542Z,3.90
2023-04-02T07:44:59.490Z,3.90
2023-04-02T07:47:26.711Z,3.90
2023-04-02T07:49:54.666Z,3.80
2023-04-02T07:52:21.842Z,3.90
2023-04-02T07:54:48.806Z,3.90
2023-04-02T07:57:15.860Z,4.00
2023-04-02T07:59:42.937Z,3.90
2023-04-02T08:02:21.200Z,3.80
2023-04-02T08:04:51.886Z,3.80
2023-04-02T08:07:19.227Z,3.90
2023-04-02T08:09:46.160Z,3.90
2023-04-02T08:12:14.435Z,3.90
2023-04-02T08:14:41.569Z,3.90
2023-04-02T08:17:08.539Z,3.90
2023-04-02T08:19:47.738Z,3.90
2023-04-02T08:22:20.988Z,4.00
2023-04-02T08:24:47.881Z,4.00
2023-04-02T08:27:15.437Z,4.00
2023-04-02T08:29:42.379Z,4.10
2023-04-02T08:32:12.196Z,4.10
2023-04-02T08:34:39.109Z,4.10
2023-04-02T08:37:06.067Z,4.20
2023-04-02T08:39:35.250Z,4.20
2023-04-02T08:42:07.794Z,4.20
2023-04-02T08:44:57.403Z,4.20
2023-04-02T08:47:26.285Z,4.30
2023-04-02T08:50:06.864Z,4.20
2023-04-02T08:52:37.429Z,4.20
2023-04-02T08:55:14.357Z,4.50
2023-04-02T08:57:52.581Z,4.50
2023-04-02T09:00:41.834Z,4.70
2023-04-02T09:03:21.507Z,4.80
2023-04-02T09:05:51.015Z,5.00
2023-04-02T09:08:24.621Z,4.80
2023-04-02T09:11:29.467Z,5.00
2023-04-02T09:13:58.552Z,4.80
2023-04-02T09:16:46.567Z,4.90
2023-04-02T09:19:41.350Z,4.80
2023-04-02T09:22:09.121Z,4.80
2023-04-02T09:24:37.830Z,4.70
2023-04-02T09:27:11.132Z,4.80
2023-04-02T09:29:42.816Z,4.90
2023-04-02T09:32:35.384Z,4.70
2023-04-02T09:35:39.059Z,4.70
2023-04-02T09:38:22.132Z,4.70
2023-04-02T09:40:53.707Z,5.00
2023-04-02T09:43:41.179Z,5.10
2023-04-02T09:46:15.681Z,5.10
2023-04-02T09:48:44.020Z,5.00
2023-04-02T09:51:25.841Z,4.90
2023-04-02T09:54:04.827Z,5.10
2023-04-02T09:56:40.250Z,5.00
2023-04-02T09:59:15.537Z,4.70
2023-04-02T10:01:50.827Z,4.80
2023-04-02T10:04:45.273Z,4.60
2023-04-02T10:07:39.194Z,4.70
2023-04-02T10:10:25.078Z,4.80
2023-04-02T10:13:01.526Z,4.70
2023-04-02T10:15:42.521Z,4.80
2023-04-02T10:18:33.446Z,4.80
2023-04-02T10:21:03.968Z,4.80
2023-04-02T10:23:31.963Z,4.90
2023-04-02T10:26:27.505Z,4.80
2023-04-02T10:29:10.810Z,4.90
2023-04-02T10:31:47.945Z,4.80
2023-04-02T10:34:25.973Z,4.80
2023-04-02T10:37:01.496Z,4.80
2023-04-02T10:39:33.661Z,4.80
2023-04-02T10:42:21.636Z,4.80
2023-04-02T10:45:13.507Z,5.00
2023-04-02T10:47:58.879Z,4.90
2023-04-02T10:50:34.116Z,4.80
2023-04-02T10:53:16.274Z,4.60
2023-04-02T10:55:52.645Z,4.80
2023-04-02T10:58:24.970Z,4.80
2023-04-02T11:01:08.027Z,5.00
2023-04-02T11:03:42.233Z,4.70
2023-04-02T11:06:31.298Z,4.70
2023-04-02T11:09:05.070Z,4.50
2023-04-02T11:11:44.761Z,4.70
2023-04-02T11:14:25.458Z,4.60
2023-04-02T11:16:54.884Z,4.50
2023-04-02T11:19:26.278Z,4.60
2023-04-02T11:22:01.812Z,4.80
2023-04-02T11:24:33.067Z,4.60
2023-04-02T11:27:11.328Z,4.60
2023-04-02T11:29:46.280Z,4.60
2023-04-02T11:32:22.416Z,4.70
2023-04-02T11:34:59.813Z,4.70
2023-04-02T11:37:37.024Z,4.80
2023-04-02T11:40:14.162Z,4.60
2023-04-02T11:42:42.601Z,4.70
2023-04-02T11:45:24.172Z,4.60
2023-04-02T11:48:00.268Z,4.70
2023-04-02T11:50:31.744Z,4.60
2023-04-02T11:53:04.034Z,4.80
2023-04-02T11:55:33.666Z,4.60
2023-04-02T11:58:31.158Z,4.70
2023-04-02T12:01:25.283Z,4.80
2023-04-02T12:04:01.269Z,4.70
2023-04-02T12:06:30.927Z,4.60
2023-04-02T12:09:07.992Z,4.60
2023-04-02T12:11:38.300Z,4.70
2023-04-02T12:14:36.433Z,4.70
2023-04-02T12:17:07.139Z,4.70
2023-04-02T12:19:35.645Z,4.70
2023-04-02T12:22:02.914Z,4.80
2023-04-02T12:24:33.448Z,4.60
2023-04-02T12:27:16.900Z,4.80
2023-04-02T12:34:16.725Z,4.90
2023-04-02T12:36:59.711Z,4.90
2023-04-02T12:39:28.497Z,4.80
2023-04-02T12:41:56.830Z,4.90
2023-04-02T12:44:27.703Z,4.90
2023-04-02T12:46:55.254Z,4.80
2023-04-02T12:49:37.122Z,4.70
2023-04-02T12:52:12.971Z,4.90
2023-04-02T12:54:48.352Z,4.90
2023-04-02T12:57:30.270Z,4.90
2023-04-02T13:00:31.085Z,5.00
2023-04-02T13:03:05.869Z,5.20
2023-04-02T13:05:40.416Z,4.80
2023-04-02T13:08:15.027Z,4.80
2023-04-02T13:10:43.480Z,4.80
2023-04-02T13:13:28.435Z,4.80
2023-04-02T13:16:22.825Z,4.70
2023-04-02T13:18:51.150Z,4.70
2023-04-02T13:21:20.947Z,4.70
2023-04-02T13:23:48.023Z,4.80
2023-04-02T13:26:24.973Z,4.70
2023-04-02T13:29:00.144Z,4.80
2023-04-02T13:31:27.882Z,4.80
2023-04-02T13:33:55.025Z,5.00
2023-04-02T13:36:22.144Z,4.80
2023-04-02T13:38:49.154Z,4.70
2023-04-02T13:41:28.635Z,4.90
2023-04-02T13:43:58.457Z,4.90
2023-04-02T13:46:29.031Z,4.90
2023-04-02T13:48:57.298Z,5.00
2023-04-02T13:51:37.279Z,4.80
2023-04-02T13:54:09.065Z,4.90
2023-04-02T13:56:36.277Z,5.00
2023-04-02T13:59:03.407Z,5.00
2023-04-02T14:01:32.229Z,5.10
2023-04-02T14:03:59.616Z,4.90
2023-04-02T14:06:52.508Z,5.00
2023-04-02T14:09:30.049Z,5.00
2023-04-02T14:12:11.922Z,5.20
2023-04-02T14:15:12.620Z,5.00
2023-04-02T14:17:40.143Z,5.00
2023-04-02T14:20:12.476Z,4.90
2023-04-02T14:23:00.866Z,4.80
2023-04-02T14:25:53.450Z,4.70
2023-04-02T14:28:49.323Z,4.80
2023-04-02T14:31:42.170Z,4.70
2023-04-02T14:34:29.922Z,4.80
2023-04-02T14:37:13.696Z,5.00
2023-04-02T14:39:49.799Z,5.20
2023-04-02T14:42:19.113Z,5.80
2023-04-02T14:45:03.560Z,5.70
2023-04-02T14:47:45.402Z,5.80
2023-04-02T14:50:40.257Z,6.00
2023-04-02T14:53:42.240Z,6.10
2023-04-02T14:56:12.611Z,6.50
2023-04-02T14:58:46.902Z,6.60
2023-04-02T15:01:25.598Z,6.50
2023-04-02T15:04:03.126Z,6.30
2023-04-02T15:06:47.546Z,6.20
2023-04-02T15:09:24.231Z,6.50
2023-04-02T15:11:55.424Z,6.40
2023-04-02T15:14:51.374Z,5.90
2023-04-02T15:17:20.556Z,5.50
2023-04-02T15:19:47.660Z,5.50
2023-04-02T15:22:39.460Z,5.50
2023-04-02T15:25:12.186Z,5.20
2023-04-02T15:27:57.470Z,5.20
2023-04-02T15:30:35.284Z,5.20
2023-04-02T15:33:33.824Z,5.40
2023-04-02T15:36:09.858Z,5.50
2023-04-02T15:38:49.190Z,5.50
2023-04-02T15:41:37.726Z,5.50
2023-04-02T15:44:15.470Z,5.70
2023-04-02T15:47:21.070Z,5.40
2023-04-02T15:50:02.451Z,5.20
2023-04-02T15:52:43.242Z,5.30
2023-04-02T15:55:41.717Z,5.50
2023-04-02T15:58:46.956Z,5.60
2023-04-02T16:01:39.930Z,5.10
2023-04-02T16:04:18.037Z,5.40
2023-04-02T16:07:29.847Z,5.40
2023-04-02T16:10:14.554Z,5.50
2023-04-02T16:12:41.937Z,5.20
2023-04-02T16:15:23.763Z,4.80
2023-04-02T16:18:26.318Z,4.60
2023-04-02T16:20:54.567Z,4.30
2023-04-02T16:23:31.837Z,4.40
2023-04-02T16:26:17.620Z,4.20
2023-04-02T16:29:12.700Z,4.40
2023-04-02T16:31:54.679Z,4.50
2023-04-02T16:34:40.070Z,4.20
2023-04-02T16:37:22.293Z,3.90
2023-04-02T16:39:58.947Z,3.70
2023-04-02T16:42:31.728Z,3.50
2023-04-02T16:45:19.186Z,3.40
2023-04-02T16:48:01.412Z,3.40
2023-04-02T16:51:11.097Z,3.40
2023-04-02T16:54:05.315Z,3.30
2023-04-02T16:56:51.745Z,3.30
2023-04-02T16:59:42.900Z,3.20
2023-04-02T17:02:40.096Z,3.20
2023-04-02T17:05:31.840Z,3.10
2023-04-02T17:08:01.852Z,3.10
2023-04-02T17:10:57.976Z,3.10
2023-04-02T17:13:40.394Z,3.10
2023-04-02T17:16:20.166Z,3.10
2023-04-02T17:18:49.597Z,3.10
2023-04-02T17:21:21.617Z,3.10
2023-04-02T17:24:06.807Z,3.10
2023-04-02T17:26:37.373Z,3.10
2023-04-02T17:29:14.544Z,3.00
2023-04-02T17:31:43.564Z,3.00
2023-04-02T17:34:16.288Z,3.00
2023-04-02T17:36:59.334Z,3.10
2023-04-02T17:39:47.405Z,3.00
2023-04-02T17:42:47.410Z,3.00
2023-04-02T17:45:27.141Z,2.90
2023-04-02T17:48:16.729Z,2.90
2023-04-02T17:51:07.180Z,2.90
2023-04-02T17:53:47.898Z,2.90
2023-04-02T17:56:43.975Z,2.90
2023-04-02T17:59:47.938Z,2.90
2023-04-02T18:02:26.865Z,2.90
2023-04-02T18:04:59.797Z,2.90
2023-04-02T18:07:38.836Z,2.90
2023-04-02T18:14:47.761Z,2.80
2023-04-02T18:17:33.764Z,2.70
2023-04-02T18:20:22.700Z,2.80
2023-04-02T18:22:58.591Z,2.80
2023-04-02T18:25:44.570Z,2.80
2023-04-02T18:28:38.970Z,2.70
2023-04-02T18:31:46.368Z,2.80
2023-04-02T18:34:47.538Z,2.70
2023-04-02T18:37:26.644Z,2.70
2023-04-02T18:40:33.661Z,2.70
2023-04-02T18:43:34.101Z,2.70
2023-04-02T18:46:29.361Z,2.60
2023-04-02T18:49:01.602Z,2.60
2023-04-02T18:51:34.335Z,2.60
2023-04-02T18:54:23.807Z,2.60
2023-04-02T18:56:50.882Z,2.50
2023-04-02T18:59:23.688Z,2.60
2023-04-02T19:01:54.479Z,2.60
2023-04-02T19:04:28.961Z,2.60
2023-04-02T19:07:01.831Z,2.60
2023-04-02T19:09:34.454Z,2.60
2023-04-02T19:12:02.642Z,2.60
2023-04-02T19:14:30.102Z,2.60
2023-04-02T19:17:06.123Z,2.60
2023-04-02T19:19:58.296Z,2.60
2023-04-02T19:22:43.741Z,2.60
2023-04-02T19:25:47.884Z,2.60
2023-04-02T19:28:42.671Z,2.60
2023-04-02T19:31:29.525Z,2.50
2023-04-02T19:34:05.010Z,2.50
2023-04-02T19:36:46.050Z,2.50
2023-04-02T19:39:21.865Z,2.50
2023-04-02T19:41:53.773Z,2.50
2023-04-02T19:44:21.879Z,2.40
2023-04-02T19:46:51.699Z,2.50
2023-04-02T19:49:29.224Z,2.50
2023-04-02T19:51:57.085Z,2.50
2023-04-02T19:54:24.115Z,2.50
2023-04-02T19:56:51.418Z,2.50
2023-04-02T19:59:19.030Z,2.30
2023-04-02T20:01:46.927Z,2.50
2023-04-02T20:04:14.673Z,2.40
2023-04-02T20:06:41.723Z,2.40
2023-04-02T20:09:09.074Z,2.40
2023-04-02T20:11:37.792Z,2.40
2023-04-02T20:14:05.657Z,2.40
2023-04-02T20:16:33.979Z,2.30
2023-04-02T20:19:01.603Z,2.40
2023-04-02T20:21:29.637Z,2.40
2023-04-02T20:23:56.602Z,2.30
2023-04-02T20:26:23.564Z,2.30
2023-04-02T20:28:50.610Z,2.30
2023-04-02T20:31:18.947Z,2.30
2023-04-02T20:33:46.783Z,2.30
2023-04-02T20:36:17.874Z,2.30
2023-04-02T20:38:45.944Z,2.30
2023-04-02T20:41:15.748Z,2.30
2023-04-02T20:43:42.903Z,2.30
2023-04-02T20:46:12.760Z,2.30
2023-04-02T20:48:40.478Z,2.20
2023-04-02T20:51:09.497Z,2.20
2023-04-02T20:53:37.929Z,2.20
2023-04-02T20:56:15.939Z,2.20
2023-04-02T20:58:44.050Z,2.10
2023-04-02T21:01:18.843Z,2.10
2023-04-02T21:03:46.493Z,2.10
2023-04-02T21:06:18.914Z,2.10
2023-04-02T21:08:46.779Z,2.10
2023-04-02T21:11:14.225Z,2.10
2023-04-02T21:13:44.205Z,2.20
2023-04-02T21:16:20.150Z,2.10
2023-04-02T21:18:50.106Z,2.20
2023-04-02T21:21:18.628Z,2.20
2023-04-02T21:23:46.509Z,2.10
2023-04-02T21:26:16.840Z,2.10
2023-04-02T21:28:44.548Z,2.10
2023-04-02T21:31:20.687Z,2.10
2023-04-02T21:33:52.981Z,2.10
2023-04-02T21:36:25.484Z,2.10
2023-04-02T21:39:00.836Z,2.10
2023-04-02T21:41:30.814Z,2.10
2023-04-02T21:43:59.385Z,2.10
2023-04-02T21:46:28.491Z,2.00
2023-04-02T21:48:58.970Z,2.00
2023-04-02T21:51:28.525Z,2.00
2023-04-02T21:53:55.756Z,1.90
2023-04-02T21:56:25.297Z,2.00
2023-04-02T21:58:52.517Z,2.00
2023-04-02T22:01:27.353Z,2.00
2023-04-02T22:04:00.408Z,2.00
2023-04-02T22:06:30.190Z,2.00
2023-04-02T22:09:00.441Z,2.00
2023-04-02T22:11:30.811Z,2.10
2023-04-02T22:13:58.690Z,2.20
2023-04-02T22:16:28.011Z,2.10
2023-04-02T22:18:56.777Z,2.10
2023-04-02T22:21:24.372Z,2.20
2023-04-02T22:23:51.620Z,2.20
2023-04-02T22:26:20.823Z,2.20
2023-04-02T22:28:47.882Z,2.20
2023-04-02T22:31:18.433Z,2.20
2023-04-02T22:33:46.844Z,2.20
2023-04-02T22:36:15.193Z,2.20
2023-04-02T22:38:42.309Z,2.20
2023-04-02T22:41:14.765Z,2.20
2023-04-02T22:43:44.200Z,2.20
2023-04-02T22:46:13.090Z,2.20
2023-04-02T22:48:40.551Z,2.20
2023-04-02T22:51:09.117Z,2.30
2023-04-02T22:53:36.938Z,2.30
2023-04-02T22:56:15.545Z,2.30
2023-04-02T22:58:43.257Z,2.30
2023-04-02T23:01:36.962Z,2.30
2023-04-02T23:04:05.329Z,2.30
2023-04-02T23:06:32.578Z,2.40
2023-04-02T23:08:59.610Z,2.40
2023-04-02T23:11:28.052Z,2.30
2023-04-02T23:13:57.601Z,2.30
2023-04-02T23:16:27.398Z,2.30
2023-04-02T23:18:55.547Z,2.30
2023-04-02T23:21:22.794Z,2.30
2023-04-02T23:23:51.148Z,2.30
2023-04-02T23:26:21.888Z,2.30
2023-04-02T23:28:49.811Z,2.30
2023-04-02T23:31:23.083Z,2.30
2023-04-02T23:33:51.591Z,2.30
2023-04-02T23:36:26.468Z,2.30
2023-04-02T23:38:55.608Z,2.30
2023-04-02T23:41:24.580Z,2.30
2023-04-02T23:43:51.947Z,2.30
2023-04-02T23:46:19.572Z,2.30
2023-04-02T23:48:47.640Z,2.30
2023-04-02T23:51:14.717Z,2.30
2023-04-02T23:53:43.456Z,2.30
2023-04-02T23:56:11.055Z,2.20
2023-04-02T23:58:38.219Z,2.20
